createdAt,value
2022-09-09T00:02:20.630Z,95641.94
2022-09-09T00:05:28.463Z,95618.63
2022-09-09T00:08:35.617Z,95640.22
2022-09-09T00:11:49.081Z,95640.75
2022-09-09T00:14:56.028Z,95646.16
2022-09-09T00:17:57.522Z,95634.13
2022-09-09T00:21:09.101Z,95617.44
2022-09-09T00:23:56.062Z,95631.06
2022-09-09T00:26:50.133Z,95638.06
2022-09-09T00:29:39.568Z,95638.56
2022-09-09T00:32:29.603Z,95622.09
2022-09-09T00:35:32.845Z,95620.66
2022-09-09T00:38:26.856Z,95649.31
2022-09-09T00:41:36.390Z,95644.06
2022-09-09T00:44:25.153Z,95633.34
2022-09-09T00:47:36.492Z,95638.31
2022-09-09T00:50:30.743Z,95642.94
2022-09-09T00:53:52.942Z,95648.59
2022-09-09T00:56:54.530Z,95634.06
2022-09-09T00:59:52.731Z,95649.03
2022-09-09T01:02:51.154Z,95619.72
2022-09-09T01:05:43.418Z,95640.22
2022-09-09T01:08:39.908Z,95648.91
2022-09-09T01:12:04.198Z,95637.94
2022-09-09T01:14:55.454Z,95611.59
2022-09-09T01:17:49.826Z,95639.13
2022-09-09T01:20:48.723Z,95663.25
2022-09-09T01:23:47.398Z,95631.59
2022-09-09T01:26:45.805Z,95645.25
2022-09-09T01:29:42.003Z,95630.44
2022-09-09T01:32:49.829Z,95641.31
2022-09-09T01:35:41.552Z,95647.97
2022-09-09T01:38:28.142Z,95650.22
2022-09-09T01:41:13.928Z,95640.34
2022-09-09T01:44:23.037Z,95638.09
2022-09-09T01:47:09.612Z,95634.41
2022-09-09T01:50:10.005Z,95642.47
2022-09-09T01:53:00.828Z,95639.94
2022-09-09T01:56:08.933Z,95633.28
2022-09-09T01:59:06.696Z,95648.09
2022-09-09T02:01:58.901Z,95644.78
2022-09-09T02:04:49.219Z,95639.25
2022-09-09T02:07:43.366Z,95637.13
2022-09-09T02:11:02.855Z,95631.03
2022-09-09T02:14:19.263Z,95641.44
2022-09-09T02:17:11.190Z,95641.91
2022-09-09T02:20:15.984Z,95650.13
2022-09-09T02:23:29.204Z,95630.47
2022-09-09T02:26:21.260Z,95628.84
2022-09-09T02:29:15.515Z,95625.03
2022-09-09T02:32:05.209Z,95626.94
2022-09-09T02:35:01.910Z,95622.47
2022-09-09T02:37:47.889Z,95629.00
2022-09-09T02:40:35.002Z,95611.22
2022-09-09T02:43:25.052Z,95620.50
2022-09-09T02:46:40.500Z,95637.31
2022-09-09T02:49:58.860Z,95634.53
2022-09-09T02:53:26.842Z,95637.72
2022-09-09T02:56:22.640Z,95626.44
2022-09-09T02:59:09.297Z,95629.97
2022-09-09T03:01:56.157Z,95646.69
2022-09-09T03:04:45.624Z,95648.03
2022-09-09T03:07:33.210Z,95655.03
2022-09-09T03:10:20.265Z,95633.69
2022-09-09T03:13:06.924Z,95652.31
2022-09-09T03:15:57.500Z,95636.25
2022-09-09T03:18:46.048Z,95655.03
2022-09-09T03:21:31.881Z,95641.91
2022-09-09T03:24:18.633Z,95640.28
2022-09-09T03:27:04.802Z,95633.78
2022-09-09T03:29:53.744Z,95625.53
2022-09-09T03:32:47.087Z,95626.94
2022-09-09T03:35:34.688Z,95614.94
2022-09-09T03:38:22.244Z,95596.63
2022-09-09T03:41:08.912Z,95597.19
2022-09-09T03:43:55.589Z,95597.44
2022-09-09T03:46:44.214Z,95595.53
2022-09-09T03:49:30.230Z,95605.72
2022-09-09T03:52:20.423Z,95618.31
2022-09-09T03:55:10.416Z,95624.81
2022-09-09T03:57:56.661Z,95620.38
2022-09-09T04:00:44.242Z,95621.22
2022-09-09T04:03:30.861Z,95627.53
2022-09-09T04:06:18.214Z,95616.84
2022-09-09T04:09:06.506Z,95626.97
2022-09-09T04:11:54.189Z,95637.09
2022-09-09T04:14:40.378Z,95603.75
2022-09-09T04:17:26.944Z,95620.81
2022-09-09T04:20:13.208Z,95603.75
2022-09-09T04:22:59.315Z,95604.81
2022-09-09T04:25:50.132Z,95624.81
2022-09-09T04:28:37.290Z,95622.28
2022-09-09T04:31:26.964Z,95626.88
2022-09-09T04:34:15.789Z,95619.22
2022-09-09T04:37:02.233Z,95638.09
2022-09-09T04:39:48.721Z,95641.75
2022-09-09T04:42:37.184Z,95622.19
2022-09-09T04:45:23.575Z,95626.78
2022-09-09T04:48:10.708Z,95631.72
2022-09-09T04:51:05.801Z,95628.19
2022-09-09T04:53:55.094Z,95643.75
2022-09-09T04:56:43.495Z,95638.78
2022-09-09T04:59:31.284Z,95647.88
2022-09-09T05:02:19.920Z,95646.22
2022-09-09T05:05:07.515Z,95641.94
2022-09-09T05:07:53.628Z,95649.00
2022-09-09T05:10:40.214Z,95661.88
2022-09-09T05:13:30.049Z,95670.75
2022-09-09T05:16:16.368Z,95671.25
2022-09-09T05:19:04.269Z,95680.78
2022-09-09T05:22:02.106Z,95691.09
2022-09-09T05:24:56.032Z,95688.63
2022-09-09T05:27:41.919Z,95696.59
2022-09-09T05:30:27.900Z,95698.59
2022-09-09T05:33:14.253Z,95704.84
2022-09-09T05:36:02.699Z,95702.03
2022-09-09T05:38:50.279Z,95722.56
2022-09-09T05:41:36.994Z,95721.97
2022-09-09T05:44:26.054Z,95731.75
2022-09-09T05:47:13.273Z,95742.50
2022-09-09T05:49:59.084Z,95746.50
2022-09-09T05:52:45.537Z,95758.09
2022-09-09T05:55:32.266Z,95755.56
2022-09-09T05:58:19.128Z,95761.84
2022-09-09T06:01:09.709Z,95756.41
2022-09-09T06:03:56.713Z,95744.13
2022-09-09T06:06:44.148Z,95744.72
2022-09-09T06:09:33.689Z,95749.69
2022-09-09T06:12:19.452Z,95747.22
2022-09-09T06:15:06.263Z,95710.97
2022-09-09T06:17:56.622Z,95713.34
2022-09-09T06:20:42.432Z,95741.53
2022-09-09T06:23:29.521Z,95744.59
2022-09-09T06:26:20.954Z,95719.56
2022-09-09T06:29:08.941Z,95710.03
2022-09-09T06:31:56.869Z,95710.84
2022-09-09T06:34:46.441Z,95740.69
2022-09-09T06:37:32.365Z,95759.47
2022-09-09T06:40:18.791Z,95782.94
2022-09-09T06:43:05.138Z,95789.78
2022-09-09T06:46:13.921Z,95803.22
2022-09-09T06:49:00.939Z,95809.56
2022-09-09T06:51:47.447Z,95815.50
2022-09-09T06:54:34.669Z,95834.97
2022-09-09T06:57:36.350Z,95828.84
2022-09-09T07:00:25.104Z,95822.69
2022-09-09T07:03:11.800Z,95819.16
2022-09-09T07:05:58.745Z,95795.75
2022-09-09T07:08:58.811Z,95809.81
2022-09-09T07:11:49.165Z,95828.69
2022-09-09T07:14:38.569Z,95846.66
2022-09-09T07:17:29.324Z,95835.75
2022-09-09T07:20:16.880Z,95839.44
2022-09-09T07:23:03.922Z,95819.81
2022-09-09T07:25:51.479Z,95808.13
2022-09-09T07:28:38.749Z,95808.00
2022-09-09T07:31:37.615Z,95785.25
2022-09-09T07:34:27.245Z,95782.50
2022-09-09T07:37:14.503Z,95801.63
2022-09-09T07:40:04.235Z,95799.97
2022-09-09T07:42:50.386Z,95788.91
2022-09-09T07:45:37.041Z,95821.97
2022-09-09T07:48:22.939Z,95815.22
2022-09-09T07:51:11.441Z,95827.50
2022-09-09T07:54:00.748Z,95828.06
2022-09-09T07:56:47.773Z,95828.28
2022-09-09T07:59:34.626Z,95837.03
2022-09-09T08:02:20.742Z,95858.06
2022-09-09T08:05:07.149Z,95873.88
2022-09-09T08:07:53.685Z,95868.91
2022-09-09T08:10:39.730Z,95877.66
2022-09-09T08:13:25.562Z,95899.88
2022-09-09T08:16:16.451Z,95905.88
2022-09-09T08:19:03.869Z,95912.47
2022-09-09T08:21:50.173Z,95901.97
2022-09-09T08:24:37.007Z,95912.00
2022-09-09T08:27:23.778Z,95884.28
2022-09-09T08:30:13.829Z,95855.44
2022-09-09T08:33:01.045Z,95845.84
2022-09-09T08:35:52.039Z,95848.00
2022-09-09T08:38:38.795Z,95865.84
2022-09-09T08:42:02.008Z,95855.34
2022-09-09T08:44:57.215Z,95832.66
2022-09-09T08:48:04.553Z,95825.25
2022-09-09T08:50:53.145Z,95835.16
2022-09-09T08:53:55.363Z,95829.16
2022-09-09T08:56:45.596Z,95813.00
2022-09-09T08:59:32.680Z,95789.16
2022-09-09T09:02:24.839Z,95780.56
2022-09-09T09:05:31.114Z,95783.88
2022-09-09T09:08:30.058Z,95789.19
2022-09-09T09:11:15.961Z,95762.38
2022-09-09T09:14:24.528Z,95775.28
2022-09-09T09:17:21.773Z,95824.84
2022-09-09T09:20:13.762Z,95811.50
2022-09-09T09:23:01.931Z,95835.91
2022-09-09T09:25:48.218Z,95824.59
2022-09-09T09:28:35.159Z,95819.66
2022-09-09T09:31:28.660Z,95815.81
2022-09-09T09:34:14.937Z,95820.09
2022-09-09T09:37:02.789Z,95830.81
2022-09-09T09:40:07.002Z,95816.34
2022-09-09T09:42:55.370Z,95825.03
2022-09-09T09:45:55.252Z,95822.59
2022-09-09T09:49:06.734Z,95806.06
2022-09-09T09:51:53.823Z,95820.00
2022-09-09T09:54:43.114Z,95801.44
2022-09-09T09:57:32.618Z,95800.28
2022-09-09T10:00:23.946Z,95803.09
2022-09-09T10:03:24.044Z,95809.03
2022-09-09T10:06:11.049Z,95792.72
2022-09-09T10:08:56.947Z,95791.19
2022-09-09T10:11:48.014Z,95791.16
2022-09-09T10:15:00.048Z,95793.28
2022-09-09T10:18:02.974Z,95788.94
2022-09-09T10:21:11.188Z,95779.97
2022-09-09T10:24:34.465Z,95778.09
2022-09-09T10:27:42.053Z,95787.78
2022-09-09T10:30:42.595Z,95784.56
2022-09-09T10:33:45.745Z,95794.22
2022-09-09T10:36:31.998Z,95792.91
2022-09-09T10:39:20.808Z,95788.94
2022-09-09T10:42:13.968Z,95805.41
2022-09-09T10:45:26.343Z,95797.97
2022-09-09T10:48:27.425Z,95786.75
2022-09-09T10:51:22.570Z,95787.78
2022-09-09T10:54:18.731Z,95786.16
2022-09-09T10:57:22.174Z,95776.19
2022-09-09T11:00:38.554Z,95782.19
2022-09-09T11:03:30.624Z,95756.81
2022-09-09T11:06:20.821Z,95763.97
2022-09-09T11:09:07.910Z,95751.94
2022-09-09T11:11:55.697Z,95760.41
2022-09-09T11:14:49.653Z,95769.13
2022-09-09T11:17:48.130Z,95743.78
2022-09-09T11:20:36.144Z,95749.38
2022-09-09T11:23:42.319Z,95767.66
2022-09-09T11:26:41.038Z,95757.63
2022-09-09T11:29:51.838Z,95755.72
2022-09-09T11:33:11.140Z,95764.97
2022-09-09T11:36:05.877Z,95772.69
2022-09-09T11:39:01.667Z,95762.53
2022-09-09T11:41:47.524Z,95749.03
2022-09-09T11:44:33.453Z,95751.75
2022-09-09T11:47:31.353Z,95754.72
2022-09-09T11:50:17.390Z,95753.50
2022-09-09T11:53:16.091Z,95733.41
2022-09-09T11:56:16.976Z,95741.59
2022-09-09T11:59:18.118Z,95755.38
2022-09-09T12:02:13.937Z,95737.28
2022-09-09T12:05:15.056Z,95742.06
2022-09-09T12:08:02.226Z,95734.56
2022-09-09T12:11:04.360Z,95739.69
2022-09-09T12:13:57.511Z,95727.19
2022-09-09T12:16:43.907Z,95732.78
2022-09-09T12:19:29.961Z,95721.16
2022-09-09T12:22:29.323Z,95711.19
2022-09-09T12:25:28.001Z,95716.47
2022-09-09T12:28:20.418Z,95709.72
2022-09-09T12:31:11.714Z,95689.44
2022-09-09T12:34:26.372Z,95683.41
2022-09-09T12:37:30.937Z,95665.13
2022-09-09T12:40:30.018Z,95671.47
2022-09-09T12:43:22.261Z,95655.78
2022-09-09T12:46:10.283Z,95660.72
2022-09-09T12:48:56.710Z,95638.38
2022-09-09T12:51:44.725Z,95665.47
2022-09-09T12:57:16.900Z,95652.56
2022-09-09T13:00:16.771Z,95666.19
2022-09-09T13:03:14.617Z,95665.41
2022-09-09T13:06:13.489Z,95658.78
2022-09-09T13:09:02.249Z,95658.41
2022-09-09T13:11:52.046Z,95649.13
2022-09-09T13:14:40.756Z,95650.34
2022-09-09T13:17:30.088Z,95659.72
2022-09-09T13:20:20.628Z,95640.75
2022-09-09T13:23:06.920Z,95638.19
2022-09-09T13:26:01.696Z,95634.13
2022-09-09T13:28:47.770Z,95624.84
2022-09-09T13:31:36.705Z,95643.78
2022-09-09T13:34:34.121Z,95644.56
2022-09-09T13:37:35.442Z,95650.50
2022-09-09T13:40:23.010Z,95632.06
2022-09-09T13:43:16.901Z,95632.63
2022-09-09T13:46:07.312Z,95627.94
2022-09-09T13:49:01.453Z,95659.13
2022-09-09T13:52:05.963Z,95641.97
2022-09-09T13:54:52.834Z,95630.03
2022-09-09T13:57:38.681Z,95622.94
2022-09-09T14:00:25.715Z,95623.25
2022-09-09T14:03:12.098Z,95621.09
2022-09-09T14:05:58.873Z,95621.91
2022-09-09T14:08:46.622Z,95607.47
2022-09-09T14:11:33.008Z,95609.09
2022-09-09T14:14:19.364Z,95589.94
2022-09-09T14:17:07.993Z,95618.94
2022-09-09T14:19:54.351Z,95611.56
2022-09-09T14:22:43.025Z,95594.56
2022-09-09T14:25:29.755Z,95604.19
2022-09-09T14:28:16.295Z,95605.56
2022-09-09T14:31:03.629Z,95604.75
2022-09-09T14:33:49.709Z,95600.06
2022-09-09T14:36:35.531Z,95555.13
2022-09-09T14:39:21.698Z,95563.28
2022-09-09T14:42:08.095Z,95569.56
2022-09-09T14:44:54.540Z,95591.91
2022-09-09T14:47:40.599Z,95600.06
2022-09-09T14:50:26.720Z,95591.38
2022-09-09T14:53:13.749Z,95557.25
2022-09-09T14:56:11.456Z,95562.19
2022-09-09T14:58:59.336Z,95573.97
2022-09-09T15:01:45.625Z,95566.56
2022-09-09T15:04:31.427Z,95579.44
2022-09-09T15:07:20.290Z,95565.78
2022-09-09T15:10:07.556Z,95582.22
2022-09-09T15:12:54.167Z,95585.22
2022-09-09T15:15:40.172Z,95568.03
2022-09-09T15:18:26.645Z,95564.53
2022-09-09T15:21:14.550Z,95561.50
2022-09-09T15:24:00.644Z,95569.41
2022-09-09T15:26:46.688Z,95579.19
2022-09-09T15:29:32.588Z,95565.78
2022-09-09T15:32:19.168Z,95564.47
2022-09-09T15:35:05.545Z,95553.16
2022-09-09T15:37:51.374Z,95577.69
2022-09-09T15:40:37.353Z,95559.47
2022-09-09T15:43:23.286Z,95552.06
2022-09-09T15:46:27.076Z,95578.41
2022-09-09T15:49:26.612Z,95576.59
2022-09-09T15:52:13.038Z,95581.81
2022-09-09T15:55:00.628Z,95563.31
2022-09-09T15:57:48.405Z,95555.59
2022-09-09T16:00:35.366Z,95551.03
2022-09-09T16:03:21.759Z,95543.75
2022-09-09T16:06:08.016Z,95551.09
2022-09-09T16:08:54.590Z,95538.84
2022-09-09T16:11:40.721Z,95541.25
2022-09-09T16:14:26.966Z,95570.50
2022-09-09T16:17:12.818Z,95545.38
2022-09-09T16:19:58.731Z,95537.28
2022-09-09T16:22:44.801Z,95533.19
2022-09-09T16:25:31.169Z,95547.13
2022-09-09T16:28:17.108Z,95538.06
2022-09-09T16:31:07.446Z,95545.47
2022-09-09T16:33:53.556Z,95548.25
2022-09-09T16:36:41.389Z,95554.28
2022-09-09T16:39:27.579Z,95541.72
2022-09-09T16:42:13.494Z,95539.28
2022-09-09T16:44:59.257Z,95547.72
2022-09-09T16:47:45.561Z,95550.16
2022-09-09T16:50:32.062Z,95543.00
2022-09-09T16:53:17.926Z,95549.28
2022-09-09T16:56:15.130Z,95548.66
2022-09-09T16:59:03.156Z,95543.00
2022-09-09T17:01:50.953Z,95545.97
2022-09-09T17:04:37.091Z,95552.59
2022-09-09T17:07:23.727Z,95549.63
2022-09-09T17:10:09.695Z,95548.78
2022-09-09T17:12:56.329Z,95562.06
2022-09-09T17:15:43.854Z,95547.00
2022-09-09T17:18:29.881Z,95562.84
2022-09-09T17:21:19.065Z,95545.84
2022-09-09T17:24:05.554Z,95553.50
2022-09-09T17:26:51.630Z,95574.50
2022-09-09T17:29:37.773Z,95584.59
2022-09-09T17:32:23.587Z,95570.34
2022-09-09T17:35:10.117Z,95574.47
2022-09-09T17:37:56.022Z,95577.69
2022-09-09T17:40:43.173Z,95571.44
2022-09-09T17:43:29.478Z,95573.84
2022-09-09T17:46:20.839Z,95573.00
2022-09-09T17:49:13.453Z,95574.06
2022-09-09T17:51:59.498Z,95588.47
2022-09-09T17:54:45.753Z,95580.81
2022-09-09T17:57:32.159Z,95578.63
2022-09-09T18:00:18.595Z,95587.03
2022-09-09T18:03:04.967Z,95571.16
2022-09-09T18:05:50.942Z,95576.34
2022-09-09T18:08:37.321Z,95580.97
2022-09-09T18:11:25.974Z,95573.06
2022-09-09T18:14:18.449Z,95575.53
2022-09-09T18:17:04.775Z,95567.88
2022-09-09T18:19:51.104Z,95573.75
2022-09-09T18:22:37.404Z,95582.50
2022-09-09T18:25:23.273Z,95573.41
2022-09-09T18:28:09.391Z,95585.41
2022-09-09T18:30:55.605Z,95575.34
2022-09-09T18:33:44.380Z,95586.25
2022-09-09T18:36:33.677Z,95558.88
2022-09-09T18:39:21.165Z,95570.22
2022-09-09T18:42:07.509Z,95569.59
2022-09-09T18:44:53.588Z,95573.13
2022-09-09T18:47:39.938Z,95583.47
2022-09-09T18:50:25.677Z,95581.25
2022-09-09T18:53:11.590Z,95584.50
2022-09-09T18:56:02.589Z,95576.88
2022-09-09T18:58:55.964Z,95586.09
2022-09-09T19:01:42.923Z,95586.41
2022-09-09T19:04:29.336Z,95574.66
2022-09-09T19:07:15.144Z,95571.13
2022-09-09T19:10:02.814Z,95574.66
2022-09-09T19:12:49.050Z,95564.22
2022-09-09T19:15:39.794Z,95568.25
2022-09-09T19:18:27.494Z,95564.44
2022-09-09T19:21:18.624Z,95569.06
2022-09-09T19:24:15.977Z,95577.22
2022-09-09T19:27:03.789Z,95566.59
2022-09-09T19:29:52.079Z,95560.31
2022-09-09T19:32:53.290Z,95562.47
2022-09-09T19:35:40.006Z,95556.88
2022-09-09T19:38:26.739Z,95551.03
2022-09-09T19:41:21.449Z,95548.31
2022-09-09T19:44:12.068Z,95549.38
2022-09-09T19:46:59.633Z,95547.25
2022-09-09T19:49:47.392Z,95550.72
2022-09-09T19:52:33.705Z,95537.88
2022-09-09T19:55:20.089Z,95554.25
2022-09-09T19:58:06.284Z,95546.34
2022-09-09T20:00:52.239Z,95548.00
2022-09-09T20:03:40.180Z,95549.56
2022-09-09T20:06:28.920Z,95549.31
2022-09-09T20:09:16.962Z,95535.09
2022-09-09T20:12:03.073Z,95550.97
2022-09-09T20:14:48.986Z,95547.19
2022-09-09T20:17:34.850Z,95537.00
2022-09-09T20:20:21.274Z,95549.91
2022-09-09T20:23:08.202Z,95540.00
2022-09-09T20:25:54.304Z,95534.00
2022-09-09T20:28:42.322Z,95547.13
2022-09-09T20:31:30.057Z,95553.88
2022-09-09T20:34:19.143Z,95561.53
2022-09-09T20:37:06.047Z,95556.59
2022-09-09T20:39:52.770Z,95559.31
2022-09-09T20:42:39.821Z,95541.63
2022-09-09T20:45:25.957Z,95535.25
2022-09-09T20:48:11.879Z,95562.53
2022-09-09T20:51:02.897Z,95563.88
2022-09-09T20:53:49.248Z,95580.50
2022-09-09T20:56:40.835Z,95575.06
2022-09-09T20:59:28.365Z,95572.03
2022-09-09T21:02:14.591Z,95553.94
2022-09-09T21:05:01.547Z,95571.38
2022-09-09T21:07:47.806Z,95570.63
2022-09-09T21:10:33.856Z,95579.03
2022-09-09T21:13:21.011Z,95579.34
2022-09-09T21:16:09.542Z,95577.72
2022-09-09T21:18:55.854Z,95579.84
2022-09-09T21:21:42.028Z,95584.72
2022-09-09T21:24:28.288Z,95575.41
2022-09-09T21:27:15.326Z,95560.63
2022-09-09T21:30:03.901Z,95563.88
2022-09-09T21:32:50.045Z,95568.50
2022-09-09T21:35:39.966Z,95580.84
2022-09-09T21:38:26.084Z,95564.53
2022-09-09T21:41:16.603Z,95568.84
2022-09-09T21:44:02.677Z,95570.75
2022-09-09T21:46:49.031Z,95574.28
2022-09-09T21:49:34.838Z,95569.91
2022-09-09T21:52:20.700Z,95557.56
2022-09-09T21:55:07.058Z,95575.09
2022-09-09T21:57:52.912Z,95578.06
2022-09-09T22:00:42.945Z,95572.31
2022-09-09T22:03:28.826Z,95566.31
2022-09-09T22:06:16.880Z,95572.78
2022-09-09T22:09:03.729Z,95564.91
2022-09-09T22:11:49.582Z,95567.34
2022-09-09T22:14:36.768Z,95564.63
2022-09-09T22:17:24.677Z,95540.69
2022-09-09T22:20:12.288Z,95527.25
2022-09-09T22:22:58.202Z,95538.47
2022-09-09T22:25:44.769Z,95526.22
2022-09-09T22:28:31.210Z,95531.38
2022-09-09T22:31:17.503Z,95537.66
2022-09-09T22:34:03.784Z,95524.19
2022-09-09T22:36:51.187Z,95539.75
2022-09-09T22:39:37.477Z,95533.97
2022-09-09T22:42:23.374Z,95522.28
2022-09-09T22:45:10.285Z,95520.94
2022-09-09T22:47:57.105Z,95520.13
2022-09-09T22:50:43.076Z,95483.84
2022-09-09T22:53:30.335Z,95499.78
2022-09-09T22:56:19.138Z,95490.72
2022-09-09T22:59:04.915Z,95502.72
2022-09-09T23:01:51.442Z,95502.72
2022-09-09T23:04:39.217Z,95491.72
2022-09-09T23:07:25.166Z,95509.75
2022-09-09T23:10:11.300Z,95502.66
2022-09-09T23:12:58.776Z,95508.38
2022-09-09T23:15:47.042Z,95506.94
2022-09-09T23:18:33.869Z,95500.47
2022-09-09T23:21:20.289Z,95492.31
2022-09-09T23:24:08.018Z,95484.09
2022-09-09T23:26:54.157Z,95475.84
2022-09-09T23:29:40.110Z,95483.25
2022-09-09T23:32:26.431Z,95492.25
2022-09-09T23:35:12.414Z,95497.03
2022-09-09T23:38:00.016Z,95507.97
2022-09-09T23:40:46.978Z,95507.13
2022-09-09T23:43:39.608Z,95507.13
2022-09-09T23:46:28.479Z,95508.22
2022-09-09T23:49:14.535Z,95507.63
2022-09-09T23:52:05.447Z,95508.22
2022-09-09T23:54:51.450Z,95484.41
2022-09-09T23:57:37.266Z,95494.31
